Historyczne dane pomiarowe

Dodano dane terminowe – wersja testowa.

Dane z okresu 1951-2019

Wersja bazy: 1.34 [2019-03-16, lista zmian], aktualizacja planowana na 2019-04-15

Dane meteo z obszaru Polski uzyskane na podstawie danych udostępnionych przez Instytut Meteorologii i Gospodarki Wodnej – Państwowy Instytut Badawczy.

 

Wybierz Datę:    

       

TemperaturaWilgotnośćWiatrCiśnienieOpadyŚniegCzas trwania zjawisk
 Stacja t tx tn tng RH VA  wxwx mslp ppp RRR   cm mm wxwxwxwxwxwxwx
1961-08-14 14.2 20.8 5.8- 80.8- 2.7 1.3---- 0.2------------
1961-08-13 13.3 17.5 11.5- 86.5- 5.7 1.7---- 2.0------------
1961-08-12 17.0 23.6 13.4- 91.8- 8.0 1.0---- 9.4------------
1961-08-11 18.3 25.5 17.0- 90.8- 5.3 2.0---- 2.4------------
1961-08-10 24.2 30.7 16.8- 80.3- 3.0 1.3---- 5.8------------
1961-08-09 21.3 26.3 17.1- 88.3- 6.7 0.7---- 1.6------------
1961-08-08 19.5 23.8 14.2- 83.8- 4.7 1.7---- 0.4------------
1961-08-07 19.6 23.9 17.2- 88.5- 7.0 1.7---- 5.1------------
1961-08-06 24.2 31.3 15.3- 61.8- 1.3 2.0---- 0.0------------
1961-08-05 19.2 26.1 14.6- 77.5- 4.7 2.0---- 0.0------------
1961-08-04 16.3 20.9 7.5- 70.8- 6.3 1.7---- 0.0------------
1961-08-03 15.3 20.4 13.6- 84.3- 4.0 2.0---- 0.0------------
1961-08-02 17.9 27.1 8.7- 79.0- 3.0 2.3---- 2.4------------
1961-08-01 16.4 22.1 11.2- 68.3- 3.0 1.7---- 0.0------------
1961-07-31 13.2 13.9 11.6- 93.0- 8.0 3.0---- 10.3------------
1961-07-30 12.9 15.5 10.0- 87.3- 8.0 1.7---- 3.0------------
1961-07-29 13.7 18.3 11.3- 82.5- 5.7 2.7---- 0.0------------
1961-07-28 17.8 23.3 14.4- 89.3- 8.0 1.7---- 33.9------------
1961-07-27 19.2 26.7 13.6- 76.8- 7.0 2.3---- 2.3------------
1961-07-26 17.4 24.6 8.8- 68.5- 3.3 2.0---- 0.0------------
1961-07-25 14.5 16.6 11.6- 74.0- 7.7 0.7---- 0.0------------
1961-07-24 14.3 18.3 11.8- 72.3- 6.3 1.7---- 0.0------------
1961-07-23 15.4 19.5 11.6- 74.3- 7.3 2.3---- 0.0------------
1961-07-22 14.7 17.8 12.5- 84.0- 7.0 1.3---- 1.9------------
1961-07-21 15.2 17.2 13.6- 80.0- 8.0 1.7---- 1.1------------
1961-07-20 15.7 21.3 9.0- 82.3- 6.7 0.7---- 0.0------------
1961-07-19 15.7 20.4 12.1- 84.8- 5.3 1.0---- 3.3------------
1961-07-18 14.9 19.6 11.5- 80.8- 4.3 1.7---- 1.9------------
1961-07-17 14.9 20.7 10.5- 79.3- 6.3 1.0---- 1.6------------
1961-07-16 17.7 23.1 13.2- 70.0- 5.3 2.0---- 0.0------------
1961-07-15 19.3 25.4 13.7- 68.3- 5.0 1.3---- 15.8------------
1961-07-14 15.5 21.4 13.1- 67.0- 5.0 3.7---- 0.1------------
1961-07-13 19.8 28.7 14.1- 75.0- 4.0 4.3---- 14.5------------
1961-07-12 22.4 29.6 14.1- 69.3- 2.7 1.0---- 0.0------------
1961-07-11 16.6 23.9 5.8- 74.8- 4.7 1.7---- 0.0------------
1961-07-10 14.0 18.9 11.2- 74.8- 6.0 1.0---- 3.6------------
1961-07-09 14.2 18.8 9.7- 82.0- 6.0 1.3---- 3.9------------
1961-07-08 16.0 23.4 5.2- 63.3- 2.7 1.0---- 0.0------------
1961-07-07 14.0 18.8 10.2- 66.0- 6.0 1.7---- 0.0------------
1961-07-06 13.6 17.7 7.3- 66.8- 7.3 2.7---- 0.0------------
1961-07-05 13.8 20.9 11.0- 70.3- 5.3 4.3---- 0.0------------
1961-07-04 20.3 29.5 16.6- 73.3- 4.0 2.7---- 0.0------------
1961-07-03 25.0 33.4 13.5- 59.0- 1.0 1.3---- 0.0------------
1961-07-02 23.0 31.2 12.6- 54.5- 1.3 0.7---- 0.0------------
1961-07-01 22.1 28.4 11.0- 59.5- 0.7 1.3---- 0.0------------
1961-06-30 20.2 25.9 9.2- 63.8- 0.3 0.7---- 0.0------------
1961-06-29 17.0 22.8 9.9- 68.5- 1.3 2.7---- 0.0------------
1961-06-28 14.5 21.1 13.1- 71.3- 4.7 5.3---- 0.0------------
1961-06-27 23.8 30.6 15.7- 72.3- 5.7 1.7---- 13.8------------
1961-06-26 23.5 29.9 15.4- 70.0- 5.3 1.0---- 0.1------------
1961-06-25 23.7 30.8 13.3- 52.3- 0.3 2.0---- 0.0------------
1961-06-24 19.3 25.5 11.7- 70.8- 2.3 2.3---- 0.0------------
1961-06-23 18.7 23.4 12.0- 72.5- 2.7 2.3---- 0.0------------
1961-06-22 19.7 27.4 8.0- 68.0- 3.7 2.0---- 9.4------------
1961-06-21 17.4 24.9 5.5- 64.8- 2.3 2.7---- 0.0------------
1961-06-20 15.4 21.4 8.2- 63.0- 1.3 3.0---- 0.0------------
1961-06-19 16.3 23.4 10.2- 80.3- 4.3 2.3---- 0.2------------
1961-06-18 21.1 27.9 10.0- 61.3- 1.0 1.7---- 0.0------------
1961-06-17 17.7 23.4 7.2- 61.0- 2.3 1.7---- 0.0------------
1961-06-16 14.1 19.3 7.5- 72.3- 4.7 2.0---- 0.0------------
640.9 ms

 

Źródłem pochodzenia danych jest Instytut Meteorologii i Gospodarki Wodnej – Państwowy Instytut Badawczy. Dane Instytutu Meteorologii i Gospodarki Wodnej – Państwowego Instytutu Badawczego zostały przetworzone.

Dane źródłowe można odnaleźć na stronie https://dane.imgw.pl